createdAt,value
2019-04-16T00:01:01.394Z,66.59
2019-04-16T00:03:31.074Z,66.46
2019-04-16T00:06:20.074Z,66.29
2019-04-16T00:09:03.173Z,65.96
2019-04-16T00:11:49.289Z,65.30
2019-04-16T00:14:23.579Z,64.86
2019-04-16T00:16:53.204Z,64.58
2019-04-16T00:19:22.822Z,64.41
2019-04-16T00:21:54.166Z,64.32
2019-04-16T00:24:25.441Z,64.27
2019-04-16T00:26:58.072Z,64.40
2019-04-16T00:29:26.457Z,64.23
2019-04-16T00:31:57.544Z,64.50
2019-04-16T00:34:28.139Z,64.61
2019-04-16T00:36:57.831Z,64.27
2019-04-16T00:39:27.518Z,64.18
2019-04-16T00:41:57.409Z,64.28
2019-04-16T00:44:27.088Z,64.83
2019-04-16T00:46:56.727Z,64.50
2019-04-16T00:49:27.116Z,64.43
2019-04-16T00:51:57.851Z,64.89
2019-04-16T00:54:27.460Z,64.96
2019-04-16T00:56:57.095Z,64.60
2019-04-16T00:59:27.056Z,64.51
2019-04-16T01:01:56.743Z,64.29
2019-04-16T01:04:26.370Z,64.20
2019-04-16T01:06:56.460Z,64.14
2019-04-16T01:09:26.145Z,64.30
2019-04-16T01:11:55.875Z,64.73
2019-04-16T01:14:26.863Z,65.32
2019-04-16T01:16:57.502Z,65.42
2019-04-16T01:19:27.123Z,65.70
2019-04-16T01:21:56.802Z,66.02
2019-04-16T01:24:28.307Z,66.20
2019-04-16T01:26:59.049Z,66.46
2019-04-16T01:29:33.624Z,66.16
2019-04-16T01:32:04.567Z,65.58
2019-04-16T01:34:52.230Z,65.50
2019-04-16T01:37:29.259Z,65.50
2019-04-16T01:40:00.838Z,65.65
2019-04-16T01:42:31.075Z,65.68
2019-04-16T01:45:00.946Z,65.45
2019-04-16T01:47:35.798Z,65.34
2019-04-16T01:50:04.346Z,65.62
2019-04-16T01:52:34.047Z,66.48
2019-04-16T01:55:04.761Z,67.12
2019-04-16T01:57:34.402Z,67.28
2019-04-16T02:00:08.558Z,66.97
2019-04-16T02:02:38.628Z,66.54
2019-04-16T02:05:08.563Z,66.23
2019-04-16T02:07:38.263Z,66.09
2019-04-16T02:10:08.180Z,66.01
2019-04-16T02:12:38.225Z,65.74
2019-04-16T02:15:09.084Z,65.64
2019-04-16T02:17:38.743Z,65.58
2019-04-16T02:20:08.958Z,65.82
2019-04-16T02:22:38.581Z,65.64
2019-04-16T02:25:08.412Z,65.55
2019-04-16T02:27:38.049Z,65.48
2019-04-16T02:30:07.814Z,65.46
2019-04-16T02:32:37.487Z,65.33
2019-04-16T02:35:09.201Z,65.31
2019-04-16T02:37:38.840Z,65.30
2019-04-16T02:40:08.894Z,65.54
2019-04-16T02:42:40.311Z,65.61
2019-04-16T02:45:10.369Z,65.76
2019-04-16T02:47:42.053Z,65.60
2019-04-16T02:50:13.556Z,65.46
2019-04-16T02:53:00.947Z,65.53
2019-04-16T02:55:35.233Z,65.45
2019-04-16T02:58:09.629Z,65.50
2019-04-16T03:00:41.019Z,65.75
2019-04-16T03:03:12.294Z,66.43
2019-04-16T03:05:43.689Z,66.67
2019-04-16T03:08:13.380Z,66.88
2019-04-16T03:10:44.655Z,66.95
2019-04-16T03:13:15.899Z,66.71
2019-04-16T03:15:47.442Z,66.86
2019-04-16T03:18:18.774Z,67.00
2019-04-16T03:20:48.442Z,67.04
2019-04-16T03:23:18.070Z,67.06
2019-04-16T03:25:47.708Z,67.34
2019-04-16T03:28:17.413Z,67.48
2019-04-16T03:30:47.051Z,67.79
2019-04-16T03:33:16.947Z,68.00
2019-04-16T03:35:46.616Z,68.41
2019-04-16T03:38:16.250Z,68.32
2019-04-16T03:40:46.034Z,68.03
2019-04-16T03:43:15.699Z,67.70
2019-04-16T03:45:45.327Z,67.76
2019-04-16T03:48:15.728Z,68.02
2019-04-16T03:50:45.970Z,68.32
2019-04-16T03:53:17.520Z,68.36
2019-04-16T03:55:47.591Z,68.48
2019-04-16T03:58:17.423Z,68.68
2019-04-16T04:00:48.721Z,68.87
2019-04-16T04:03:19.037Z,69.02
2019-04-16T04:05:56.950Z,69.55
2019-04-16T04:08:26.857Z,69.19
2019-04-16T04:10:58.062Z,69.37
2019-04-16T04:13:29.508Z,69.01
2019-04-16T04:16:01.523Z,69.28
2019-04-16T04:18:30.928Z,69.24
2019-04-16T04:21:00.631Z,69.40
2019-04-16T04:23:30.259Z,69.01
2019-04-16T04:26:00.234Z,68.96
2019-04-16T04:28:29.895Z,68.94
2019-04-16T04:31:01.022Z,68.73
2019-04-16T04:33:42.573Z,68.70
2019-04-16T04:36:11.567Z,68.20
2019-04-16T04:38:42.274Z,68.01
2019-04-16T04:41:13.835Z,69.05
2019-04-16T04:43:43.620Z,69.37
2019-04-16T04:46:15.088Z,69.36
2019-04-16T04:48:44.604Z,69.41
2019-04-16T04:51:18.649Z,69.42
2019-04-16T04:53:50.329Z,69.25
2019-04-16T04:56:20.421Z,69.02
2019-04-16T04:58:50.100Z,68.93
2019-04-16T05:01:19.730Z,68.73
2019-04-16T05:03:51.043Z,68.52
2019-04-16T05:06:31.259Z,68.14
2019-04-16T05:09:01.464Z,67.81
2019-04-16T05:11:31.232Z,67.51
2019-04-16T05:14:00.923Z,67.27
2019-04-16T05:16:31.546Z,67.19
2019-04-16T05:19:02.549Z,67.03
2019-04-16T05:21:32.179Z,66.92
2019-04-16T05:24:01.847Z,66.81
2019-04-16T05:26:33.564Z,66.70
2019-04-16T05:29:17.057Z,66.73
2019-04-16T05:31:44.498Z,66.58
2019-04-16T05:34:17.206Z,66.51
2019-04-16T05:36:47.713Z,66.39
2019-04-16T05:39:16.874Z,66.30
2019-04-16T05:41:46.862Z,66.40
2019-04-16T05:44:16.550Z,66.44
2019-04-16T05:46:47.083Z,66.43
2019-04-16T05:49:16.704Z,66.29
2019-04-16T05:51:46.425Z,66.24
2019-04-16T05:54:17.729Z,65.95
2019-04-16T05:56:48.970Z,65.87
2019-04-16T05:59:18.607Z,66.01
2019-04-16T06:01:52.311Z,66.13
2019-04-16T06:04:24.986Z,66.01
2019-04-16T06:06:54.028Z,66.10
2019-04-16T06:09:24.028Z,66.03
2019-04-16T06:11:55.107Z,65.75
2019-04-16T06:14:29.053Z,65.75
2019-04-16T06:17:09.245Z,64.97
2019-04-16T06:19:46.399Z,64.09
2019-04-16T06:22:28.958Z,63.69
2019-04-16T06:25:18.218Z,63.40
2019-04-16T06:28:01.396Z,62.95
2019-04-16T06:30:34.015Z,62.84
2019-04-16T06:33:05.405Z,62.38
2019-04-16T06:35:54.720Z,61.54
2019-04-16T06:38:26.169Z,60.84
2019-04-16T06:41:06.405Z,59.83
2019-04-16T06:43:40.331Z,59.66
2019-04-16T06:46:14.393Z,59.33
2019-04-16T06:48:51.598Z,59.63
2019-04-16T06:54:37.511Z,59.33
2019-04-16T06:57:20.771Z,58.90
2019-04-16T06:59:59.544Z,58.76
2019-04-16T07:02:37.334Z,58.32
2019-04-16T07:05:11.885Z,57.91
2019-04-16T07:07:59.557Z,57.59
2019-04-16T07:10:43.755Z,58.14
2019-04-16T07:13:03.317Z,57.29
2019-04-16T07:15:33.004Z,57.15
2019-04-16T07:18:05.405Z,56.54
2019-04-16T07:20:33.929Z,56.71
2019-04-16T07:23:03.586Z,56.26
2019-04-16T07:25:39.769Z,56.05
2019-04-16T07:28:07.511Z,55.95
2019-04-16T07:30:40.392Z,55.90
2019-04-16T07:33:21.066Z,55.23
2019-04-16T07:35:52.356Z,54.78
2019-04-16T07:38:23.916Z,55.07
2019-04-16T07:41:10.956Z,54.96
2019-04-16T07:43:56.552Z,54.83
2019-04-16T07:46:33.534Z,54.04
2019-04-16T07:49:23.467Z,52.96
2019-04-16T07:51:54.199Z,52.65
2019-04-16T07:54:28.226Z,52.36
2019-04-16T07:56:57.842Z,51.36
2019-04-16T07:59:32.022Z,51.38
2019-04-16T08:01:59.004Z,51.46
2019-04-16T08:04:29.402Z,50.65
2019-04-16T08:07:00.568Z,50.34
2019-04-16T08:09:33.487Z,50.07
2019-04-16T08:12:01.781Z,49.55
2019-04-16T08:14:31.431Z,49.14
2019-04-16T08:17:01.057Z,49.23
2019-04-16T08:19:37.053Z,49.88
2019-04-16T08:22:02.369Z,49.92
2019-04-16T08:24:48.940Z,50.66
2019-04-16T08:27:20.905Z,50.38
2019-04-16T08:29:50.527Z,49.63
2019-04-16T08:32:20.200Z,49.55
2019-04-16T08:34:49.860Z,49.74
2019-04-16T08:37:19.531Z,49.65
2019-04-16T08:39:49.163Z,49.59
2019-04-16T08:42:24.378Z,49.32
2019-04-16T08:44:50.183Z,49.04
2019-04-16T08:47:19.801Z,48.92
2019-04-16T08:49:53.765Z,51.69
2019-04-16T08:52:20.788Z,52.74
2019-04-16T08:54:54.522Z,53.19
2019-04-16T08:57:23.344Z,53.53
2019-04-16T08:59:52.960Z,53.80
2019-04-16T09:02:23.627Z,53.79
2019-04-16T09:04:54.217Z,54.00
2019-04-16T09:07:42.366Z,53.50
2019-04-16T09:10:23.554Z,53.02
2019-04-16T09:13:03.497Z,52.84
2019-04-16T09:15:26.968Z,52.34
2019-04-16T09:17:57.206Z,52.42
2019-04-16T09:20:28.470Z,52.28
2019-04-16T09:22:59.168Z,51.91
2019-04-16T09:25:30.683Z,51.84
2019-04-16T09:28:02.427Z,51.53
2019-04-16T09:30:33.739Z,51.34
2019-04-16T09:33:07.664Z,50.88
2019-04-16T09:35:44.925Z,51.02
2019-04-16T09:38:31.058Z,50.67
2019-04-16T09:41:02.336Z,50.30
2019-04-16T09:43:35.480Z,49.82
2019-04-16T09:46:10.982Z,50.13
2019-04-16T09:48:36.728Z,49.77
2019-04-16T09:51:06.522Z,49.94
2019-04-16T09:53:40.006Z,49.74
2019-04-16T09:56:28.923Z,49.83
2019-04-16T09:59:01.163Z,48.71
2019-04-16T10:01:32.490Z,48.22
2019-04-16T10:04:03.694Z,47.56
2019-04-16T10:06:33.323Z,47.30
2019-04-16T10:09:03.438Z,46.19
2019-04-16T10:11:35.754Z,45.47
2019-04-16T10:14:04.572Z,45.53
2019-04-16T10:16:34.245Z,45.49
2019-04-16T10:19:07.916Z,45.70
2019-04-16T10:21:35.212Z,45.15
2019-04-16T10:24:15.207Z,44.92
2019-04-16T10:26:46.489Z,43.95
2019-04-16T10:29:17.709Z,43.62
2019-04-16T10:31:47.579Z,43.17
2019-04-16T10:34:17.659Z,42.85
2019-04-16T10:36:47.745Z,42.42
2019-04-16T10:39:19.009Z,42.48
2019-04-16T10:42:06.934Z,42.31
2019-04-16T10:44:40.869Z,41.85
2019-04-16T10:47:28.287Z,41.80
2019-04-16T10:50:17.893Z,41.78
2019-04-16T10:53:07.490Z,42.36
2019-04-16T10:55:50.912Z,42.48
2019-04-16T10:58:38.148Z,42.39
2019-04-16T11:01:09.432Z,42.77
2019-04-16T11:03:40.699Z,42.47
2019-04-16T11:06:11.996Z,42.05
2019-04-16T11:08:41.907Z,42.16
2019-04-16T11:11:11.527Z,42.70
2019-04-16T11:13:59.188Z,42.96
2019-04-16T11:16:17.269Z,43.15
2019-04-16T11:18:46.968Z,43.15
2019-04-16T11:21:17.043Z,43.45
2019-04-16T11:23:46.730Z,43.25
2019-04-16T11:26:16.310Z,42.98
2019-04-16T11:28:46.042Z,42.47
2019-04-16T11:31:17.354Z,42.53
2019-04-16T11:33:47.250Z,41.96
2019-04-16T11:36:20.283Z,42.13
2019-04-16T11:38:48.217Z,41.77
2019-04-16T11:41:19.388Z,41.87
2019-04-16T11:43:49.546Z,41.81
2019-04-16T11:46:19.164Z,41.37
2019-04-16T11:48:50.307Z,40.64
2019-04-16T11:51:20.346Z,40.23
2019-04-16T11:53:49.962Z,39.58
2019-04-16T11:56:22.345Z,39.27
2019-04-16T11:58:50.976Z,40.38
2019-04-16T12:01:27.932Z,41.42
2019-04-16T12:03:59.309Z,41.89
2019-04-16T12:06:30.575Z,41.47
2019-04-16T12:09:17.226Z,41.18
2019-04-16T12:11:48.502Z,41.82
2019-04-16T12:14:35.796Z,40.94
2019-04-16T12:17:23.681Z,40.46
2019-04-16T12:20:10.953Z,39.78
2019-04-16T12:22:58.660Z,37.99
2019-04-16T12:25:32.859Z,37.14
2019-04-16T12:28:06.366Z,35.69
2019-04-16T12:30:42.718Z,34.14
2019-04-16T12:33:26.213Z,33.65
2019-04-16T12:36:14.645Z,33.33
2019-04-16T12:39:02.941Z,31.94
2019-04-16T12:41:40.461Z,30.76
2019-04-16T12:44:11.803Z,30.19
2019-04-16T12:46:59.502Z,30.00
2019-04-16T12:49:45.797Z,29.50
2019-04-16T12:52:17.579Z,28.80
2019-04-16T12:55:05.192Z,28.02
2019-04-16T12:57:39.158Z,27.68
2019-04-16T13:00:31.851Z,26.91
2019-04-16T13:03:05.791Z,26.45
2019-04-16T13:05:37.124Z,25.61
2019-04-16T13:08:17.146Z,24.63
2019-04-16T13:10:48.403Z,24.07
2019-04-16T13:13:35.816Z,23.48
2019-04-16T13:16:07.240Z,22.95
2019-04-16T13:18:38.512Z,22.60
2019-04-16T13:21:09.831Z,22.27
2019-04-16T13:23:43.784Z,21.30
2019-04-16T13:26:23.785Z,20.85
2019-04-16T13:28:55.515Z,20.37
2019-04-16T13:31:24.845Z,19.93
2019-04-16T13:33:55.991Z,19.53
2019-04-16T13:36:27.889Z,19.31
2019-04-16T13:39:04.509Z,18.95
2019-04-16T13:41:34.191Z,18.72
2019-04-16T13:44:09.013Z,18.48
2019-04-16T13:46:37.272Z,19.07
2019-04-16T13:49:31.347Z,20.04
2019-04-16T13:51:58.082Z,19.90
2019-04-16T13:54:38.097Z,20.02
2019-04-16T13:57:18.653Z,19.94
2019-04-16T13:59:55.714Z,19.97
2019-04-16T14:02:39.142Z,20.28
2019-04-16T14:05:10.966Z,20.79
2019-04-16T14:07:40.621Z,21.69
2019-04-16T14:10:10.463Z,22.28
2019-04-16T14:12:42.686Z,23.14
2019-04-16T14:15:12.661Z,23.94
2019-04-16T14:17:52.403Z,24.99
2019-04-16T14:20:15.791Z,25.35
2019-04-16T14:22:47.081Z,26.53
2019-04-16T14:25:16.999Z,27.24
2019-04-16T14:27:46.700Z,27.40
2019-04-16T14:30:18.402Z,27.83
2019-04-16T14:32:50.606Z,28.10
2019-04-16T14:35:33.144Z,28.11
2019-04-16T14:37:53.299Z,28.28
2019-04-16T14:40:23.407Z,28.29
2019-04-16T14:42:57.336Z,28.61
2019-04-16T14:45:26.737Z,28.62
2019-04-16T14:47:56.490Z,28.47
2019-04-16T14:50:26.560Z,28.70
2019-04-16T14:52:56.259Z,29.03
2019-04-16T14:55:27.658Z,28.99
2019-04-16T14:58:04.458Z,29.11
2019-04-16T15:00:35.804Z,29.54
2019-04-16T15:03:15.891Z,29.38
2019-04-16T15:05:49.946Z,29.56
2019-04-16T15:08:37.436Z,29.76
2019-04-16T15:11:25.274Z,29.43
2019-04-16T15:14:14.572Z,29.47
2019-04-16T15:16:58.057Z,29.90
2019-04-16T15:19:29.383Z,30.07
2019-04-16T15:22:17.257Z,30.15
2019-04-16T15:24:57.943Z,30.09
2019-04-16T15:27:49.169Z,30.13
2019-04-16T15:30:28.322Z,29.73
2019-04-16T15:33:05.282Z,29.62
2019-04-16T15:35:34.071Z,29.74
2019-04-16T15:38:10.076Z,29.77
2019-04-16T15:40:41.417Z,29.55
2019-04-16T15:43:12.873Z,29.83
2019-04-16T15:45:53.259Z,29.83
2019-04-16T15:48:36.298Z,29.95
2019-04-16T15:51:13.547Z,29.80
2019-04-16T15:53:50.553Z,30.11
2019-04-16T15:56:25.886Z,30.22
2019-04-16T15:58:57.276Z,30.20
2019-04-16T16:01:34.535Z,30.26
2019-04-16T16:04:08.288Z,30.55
2019-04-16T16:06:39.752Z,31.01
2019-04-16T16:09:11.367Z,30.98
2019-04-16T16:11:54.667Z,31.13
2019-04-16T16:14:24.402Z,31.37
2019-04-16T16:16:54.083Z,32.04
2019-04-16T16:19:23.757Z,32.52
2019-04-16T16:21:53.550Z,32.93
2019-04-16T16:24:24.106Z,34.09
2019-04-16T16:26:54.196Z,34.54
2019-04-16T16:29:24.202Z,34.46
2019-04-16T16:31:54.821Z,34.71
2019-04-16T16:34:24.499Z,35.00
2019-04-16T16:36:54.433Z,35.21
2019-04-16T16:39:25.002Z,35.79
2019-04-16T16:41:54.869Z,36.07
2019-04-16T16:44:24.763Z,36.41
2019-04-16T16:46:57.968Z,36.54
2019-04-16T16:49:27.852Z,36.72
2019-04-16T16:52:05.433Z,37.12
2019-04-16T16:54:35.350Z,37.63
2019-04-16T16:57:12.564Z,37.95
2019-04-16T16:59:43.970Z,38.12
2019-04-16T17:02:15.361Z,38.56
2019-04-16T17:04:46.752Z,38.82
2019-04-16T17:07:17.753Z,39.14
2019-04-16T17:09:47.757Z,39.47
2019-04-16T17:12:17.474Z,39.52
2019-04-16T17:14:47.146Z,39.56
2019-04-16T17:17:17.587Z,39.56
2019-04-16T17:19:50.439Z,39.57
2019-04-16T17:22:19.085Z,39.79
2019-04-16T17:24:48.817Z,39.93
2019-04-16T17:27:19.746Z,40.10
2019-04-16T17:29:50.789Z,40.26
2019-04-16T17:32:20.696Z,40.30
2019-04-16T17:34:50.449Z,40.53
2019-04-16T17:37:21.351Z,40.84
2019-04-16T17:39:54.643Z,40.97
2019-04-16T17:42:28.711Z,41.27
2019-04-16T17:45:16.490Z,41.34
2019-04-16T17:48:03.050Z,41.57
2019-04-16T17:50:40.324Z,41.67
2019-04-16T17:53:29.534Z,41.78
2019-04-16T17:56:00.860Z,42.15
2019-04-16T17:58:32.183Z,42.29
2019-04-16T18:01:09.809Z,42.58
2019-04-16T18:03:39.223Z,42.64
2019-04-16T18:06:10.548Z,42.77
2019-04-16T18:08:53.824Z,42.92
2019-04-16T18:11:25.131Z,43.04
2019-04-16T18:13:56.453Z,43.28
2019-04-16T18:16:30.983Z,43.45
2019-04-16T18:19:08.101Z,43.86
2019-04-16T18:21:42.443Z,43.85
2019-04-16T18:24:20.459Z,43.85
2019-04-16T18:27:00.877Z,44.00
2019-04-16T18:29:33.142Z,44.12
2019-04-16T18:32:21.291Z,44.40
2019-04-16T18:35:08.449Z,44.27
2019-04-16T18:37:51.680Z,44.35
2019-04-16T18:40:25.657Z,44.44
2019-04-16T18:43:06.002Z,44.68
2019-04-16T18:45:37.317Z,44.88
2019-04-16T18:48:13.946Z,44.93
2019-04-16T18:50:41.868Z,45.11
2019-04-16T18:53:11.585Z,45.24
2019-04-16T18:55:41.928Z,45.22
2019-04-16T18:58:11.668Z,45.37
2019-04-16T19:00:49.222Z,45.53
2019-04-16T19:03:19.047Z,45.58
2019-04-16T19:05:49.192Z,45.75
2019-04-16T19:08:19.351Z,46.01
2019-04-16T19:10:49.060Z,46.13
2019-04-16T19:13:20.124Z,46.17
2019-04-16T19:15:50.324Z,46.46
2019-04-16T19:18:20.489Z,46.50
2019-04-16T19:20:51.831Z,46.49
2019-04-16T19:23:22.239Z,46.61
2019-04-16T19:25:55.281Z,46.99
2019-04-16T19:28:25.201Z,47.07
2019-04-16T19:30:54.994Z,47.15
2019-04-16T19:33:24.843Z,47.19
2019-04-16T19:35:54.943Z,47.28
2019-04-16T19:38:24.658Z,47.44
2019-04-16T19:40:54.863Z,47.48
2019-04-16T19:43:27.943Z,47.46
2019-04-16T19:45:56.151Z,47.58
2019-04-16T19:48:35.365Z,47.78
2019-04-16T19:50:57.544Z,47.90
2019-04-16T19:53:27.313Z,48.10
2019-04-16T19:55:57.024Z,48.21
2019-04-16T19:58:27.181Z,48.43
2019-04-16T20:00:58.827Z,48.78
2019-04-16T20:03:30.502Z,49.04
2019-04-16T20:05:59.918Z,49.49
2019-04-16T20:08:34.439Z,49.37
2019-04-16T20:11:01.641Z,49.51
2019-04-16T20:13:31.831Z,49.31
2019-04-16T20:16:01.894Z,49.41
2019-04-16T20:18:31.668Z,49.57
2019-04-16T20:21:02.137Z,49.65
2019-04-16T20:23:32.281Z,49.77
2019-04-16T20:26:02.027Z,49.94
2019-04-16T20:28:31.685Z,50.03
2019-04-16T20:31:04.126Z,50.18
2019-04-16T20:33:33.346Z,50.41
2019-04-16T20:36:02.984Z,50.79
2019-04-16T20:38:32.648Z,50.59
2019-04-16T20:41:02.377Z,50.72
2019-04-16T20:43:32.111Z,51.35
2019-04-16T21:07:15.533Z,51.53
2019-04-16T21:09:45.773Z,51.86
2019-04-16T21:12:15.426Z,52.15
2019-04-16T21:14:46.751Z,52.42
2019-04-16T21:17:16.387Z,52.72
2019-04-16T21:19:47.801Z,52.61
2019-04-16T21:22:18.526Z,52.50
2019-04-16T21:24:49.494Z,52.55
2019-04-16T21:27:19.122Z,52.56
2019-04-16T21:29:48.812Z,52.60
2019-04-16T21:32:31.269Z,53.05
2019-04-16T21:35:06.746Z,53.40
2019-04-16T21:37:49.551Z,53.54
2019-04-16T21:40:23.154Z,53.79
2019-04-16T21:42:50.564Z,54.01
2019-04-16T21:45:20.193Z,54.19
2019-04-16T21:47:54.770Z,54.31
2019-04-16T21:50:21.283Z,54.38
2019-04-16T21:52:55.083Z,54.71
2019-04-16T21:55:22.567Z,54.59
2019-04-16T21:57:52.197Z,54.67
2019-04-16T22:00:38.549Z,54.47
2019-04-16T22:03:19.315Z,54.47
2019-04-16T22:05:49.118Z,54.23
2019-04-16T22:08:18.734Z,54.38
2019-04-16T22:10:49.924Z,54.63
2019-04-16T22:13:20.155Z,54.83
2019-04-16T22:15:49.861Z,54.65
2019-04-16T22:18:19.608Z,54.21
2019-04-16T22:20:49.264Z,53.98
2019-04-16T22:23:19.986Z,53.80
2019-04-16T22:25:50.059Z,53.73
2019-04-16T22:28:19.758Z,53.69
2019-04-16T22:30:51.512Z,53.55
2019-04-16T22:33:21.479Z,53.44
2019-04-16T22:35:51.143Z,53.49
2019-04-16T22:38:20.930Z,53.46
2019-04-16T22:40:56.129Z,53.44
2019-04-16T22:43:44.425Z,53.47
2019-04-16T22:46:17.857Z,53.44
2019-04-16T22:49:01.004Z,53.49
2019-04-16T22:51:30.706Z,53.40
2019-04-16T22:54:00.477Z,53.35
2019-04-16T22:56:34.446Z,53.42
2019-04-16T22:59:06.569Z,53.34
2019-04-16T23:01:37.007Z,53.22
2019-04-16T23:04:06.910Z,53.28
2019-04-16T23:06:38.724Z,53.37
2019-04-16T23:09:08.522Z,53.33
2019-04-16T23:11:39.040Z,53.32
2019-04-16T23:14:08.890Z,53.32
2019-04-16T23:16:41.694Z,53.27
2019-04-16T23:19:09.893Z,53.30
2019-04-16T23:21:42.315Z,53.33
2019-04-16T23:24:11.089Z,53.46
2019-04-16T23:26:40.834Z,53.63
2019-04-16T23:29:12.537Z,53.52
2019-04-16T23:31:43.411Z,53.49
2019-04-16T23:34:13.094Z,53.43
2019-04-16T23:36:44.528Z,53.54
2019-04-16T23:39:14.095Z,53.69
2019-04-16T23:41:47.993Z,53.67
2019-04-16T23:44:22.666Z,53.68
2019-04-16T23:47:11.043Z,53.68
2019-04-16T23:49:53.437Z,53.51
2019-04-16T23:52:24.765Z,53.65
2019-04-16T23:54:59.285Z,53.71
2019-04-16T23:57:47.193Z,53.92
